sensor_id;sensor_type;location;lat;lon;timestamp;P1;durP1;ratioP1;P2;durP2;ratioP2
73951;SDS011;62304;47.662;18.324;2022-12-29T00:01:52;7.20;;;3.42;;
73951;SDS011;62304;47.662;18.324;2022-12-29T00:04:56;6.97;;;2.83;;
73951;SDS011;62304;47.662;18.324;2022-12-29T00:07:59;9.23;;;3.70;;
73951;SDS011;62304;47.662;18.324;2022-12-29T00:11:03;7.03;;;2.73;;
73951;SDS011;62304;47.662;18.324;2022-12-29T00:14:08;7.72;;;3.28;;
73951;SDS011;62304;47.662;18.324;2022-12-29T00:17:31;8.25;;;2.65;;
73951;SDS011;62304;47.662;18.324;2022-12-29T00:20:34;10.73;;;4.00;;
73951;SDS011;62304;47.662;18.324;2022-12-29T00:23:57;5.90;;;3.00;;
73951;SDS011;62304;47.662;18.324;2022-12-29T00:27:29;10.43;;;4.27;;
73951;SDS011;62304;47.662;18.324;2022-12-29T00:30:52;10.18;;;4.30;;
73951;SDS011;62304;47.662;18.324;2022-12-29T00:34:15;5.10;;;2.67;;
73951;SDS011;62304;47.662;18.324;2022-12-29T00:37:37;9.75;;;4.43;;
73951;SDS011;62304;47.662;18.324;2022-12-29T00:41:02;9.23;;;3.95;;
73951;SDS011;62304;47.662;18.324;2022-12-29T00:44:24;10.97;;;4.70;;
73951;SDS011;62304;47.662;18.324;2022-12-29T00:47:28;9.40;;;4.15;;
73951;SDS011;62304;47.662;18.324;2022-12-29T00:50:32;10.05;;;4.32;;
73951;SDS011;62304;47.662;18.324;2022-12-29T00:53:35;12.27;;;3.40;;
73951;SDS011;62304;47.662;18.324;2022-12-29T00:56:39;9.73;;;3.92;;
73951;SDS011;62304;47.662;18.324;2022-12-29T00:59:42;8.63;;;4.10;;
73951;SDS011;62304;47.662;18.324;2022-12-29T01:02:46;8.10;;;3.35;;
73951;SDS011;62304;47.662;18.324;2022-12-29T01:05:51;7.37;;;2.60;;
73951;SDS011;62304;47.662;18.324;2022-12-29T01:08:55;8.73;;;3.53;;
73951;SDS011;62304;47.662;18.324;2022-12-29T01:12:17;7.45;;;2.72;;
73951;SDS011;62304;47.662;18.324;2022-12-29T01:15:41;11.63;;;2.77;;
73951;SDS011;62304;47.662;18.324;2022-12-29T01:18:53;10.07;;;4.78;;
73951;SDS011;62304;47.662;18.324;2022-12-29T01:21:56;8.00;;;4.28;;
73951;SDS011;62304;47.662;18.324;2022-12-29T01:24:59;10.85;;;5.20;;
73951;SDS011;62304;47.662;18.324;2022-12-29T01:28:03;10.02;;;4.75;;
73951;SDS011;62304;47.662;18.324;2022-12-29T01:31:10;12.03;;;3.97;;
73951;SDS011;62304;47.662;18.324;2022-12-29T01:34:16;10.40;;;3.65;;
73951;SDS011;62304;47.662;18.324;2022-12-29T01:37:19;10.38;;;3.92;;
73951;SDS011;62304;47.662;18.324;2022-12-29T01:40:23;7.93;;;3.55;;
73951;SDS011;62304;47.662;18.324;2022-12-29T01:46:50;5.80;;;2.15;;
73951;SDS011;62304;47.662;18.324;2022-12-29T01:49:55;7.22;;;3.53;;
73951;SDS011;62304;47.662;18.324;2022-12-29T01:53:04;8.80;;;3.30;;
73951;SDS011;62304;47.662;18.324;2022-12-29T01:56:12;8.13;;;3.92;;
73951;SDS011;62304;47.662;18.324;2022-12-29T01:59:20;8.90;;;3.23;;
73951;SDS011;62304;47.662;18.324;2022-12-29T02:02:27;11.05;;;4.80;;
73951;SDS011;62304;47.662;18.324;2022-12-29T02:05:44;13.95;;;4.60;;
73951;SDS011;62304;47.662;18.324;2022-12-29T02:08:53;10.88;;;5.20;;
73951;SDS011;62304;47.662;18.324;2022-12-29T02:11:59;11.82;;;4.75;;
73951;SDS011;62304;47.662;18.324;2022-12-29T02:15:04;11.67;;;4.53;;
73951;SDS011;62304;47.662;18.324;2022-12-29T02:18:18;12.33;;;4.97;;
73951;SDS011;62304;47.662;18.324;2022-12-29T02:35:52;11.70;;;4.82;;
73951;SDS011;62304;47.662;18.324;2022-12-29T02:42:38;10.18;;;4.87;;
73951;SDS011;62304;47.662;18.324;2022-12-29T02:45:58;7.57;;;2.60;;
73951;SDS011;62304;47.662;18.324;2022-12-29T02:49:40;9.93;;;3.63;;
73951;SDS011;62304;47.662;18.324;2022-12-29T02:52:52;6.73;;;3.20;;
73951;SDS011;62304;47.662;18.324;2022-12-29T02:56:03;8.40;;;3.70;;
73951;SDS011;62304;47.662;18.324;2022-12-29T02:59:06;9.43;;;4.05;;
73951;SDS011;62304;47.662;18.324;2022-12-29T03:13:12;11.60;;;4.50;;
73951;SDS011;62304;47.662;18.324;2022-12-29T03:16:45;10.80;;;4.57;;
73951;SDS011;62304;47.662;18.324;2022-12-29T03:19:59;9.50;;;4.37;;
73951;SDS011;62304;47.662;18.324;2022-12-29T03:23:10;12.03;;;4.80;;
73951;SDS011;62304;47.662;18.324;2022-12-29T03:26:15;11.00;;;4.07;;
73951;SDS011;62304;47.662;18.324;2022-12-29T03:29:22;7.70;;;2.72;;
73951;SDS011;62304;47.662;18.324;2022-12-29T03:33:01;14.18;;;4.82;;
73951;SDS011;62304;47.662;18.324;2022-12-29T03:36:05;9.98;;;4.68;;
73951;SDS011;62304;47.662;18.324;2022-12-29T03:39:13;10.97;;;5.20;;
73951;SDS011;62304;47.662;18.324;2022-12-29T03:42:19;13.47;;;5.57;;
73951;SDS011;62304;47.662;18.324;2022-12-29T03:45:26;11.88;;;5.07;;
73951;SDS011;62304;47.662;18.324;2022-12-29T03:52:38;14.05;;;6.40;;
73951;SDS011;62304;47.662;18.324;2022-12-29T03:55:41;14.03;;;5.67;;
73951;SDS011;62304;47.662;18.324;2022-12-29T03:58:44;9.83;;;5.23;;
73951;SDS011;62304;47.662;18.324;2022-12-29T04:01:48;10.05;;;4.47;;
73951;SDS011;62304;47.662;18.324;2022-12-29T04:04:52;11.20;;;4.78;;
73951;SDS011;62304;47.662;18.324;2022-12-29T04:07:55;9.57;;;5.05;;
73951;SDS011;62304;47.662;18.324;2022-12-29T04:10:58;14.10;;;5.47;;
73951;SDS011;62304;47.662;18.324;2022-12-29T04:14:01;12.23;;;5.45;;
73951;SDS011;62304;47.662;18.324;2022-12-29T04:17:05;11.07;;;5.03;;
73951;SDS011;62304;47.662;18.324;2022-12-29T04:20:09;11.15;;;4.00;;
73951;SDS011;62304;47.662;18.324;2022-12-29T04:23:48;9.77;;;5.00;;
73951;SDS011;62304;47.662;18.324;2022-12-29T04:26:51;9.43;;;4.90;;
73951;SDS011;62304;47.662;18.324;2022-12-29T04:29:55;13.73;;;6.40;;
73951;SDS011;62304;47.662;18.324;2022-12-29T04:32:58;12.27;;;4.95;;
73951;SDS011;62304;47.662;18.324;2022-12-29T04:36:02;16.17;;;7.35;;
73951;SDS011;62304;47.662;18.324;2022-12-29T04:39:06;12.35;;;5.90;;
73951;SDS011;62304;47.662;18.324;2022-12-29T04:42:10;15.57;;;7.13;;
73951;SDS011;62304;47.662;18.324;2022-12-29T04:45:13;17.40;;;7.93;;
73951;SDS011;62304;47.662;18.324;2022-12-29T04:48:17;11.43;;;5.20;;
73951;SDS011;62304;47.662;18.324;2022-12-29T04:51:20;16.62;;;7.47;;
73951;SDS011;62304;47.662;18.324;2022-12-29T04:54:24;15.70;;;7.03;;
73951;SDS011;62304;47.662;18.324;2022-12-29T04:57:28;14.93;;;5.97;;
73951;SDS011;62304;47.662;18.324;2022-12-29T05:00:33;17.53;;;7.27;;
73951;SDS011;62304;47.662;18.324;2022-12-29T05:03:36;20.00;;;7.68;;
73951;SDS011;62304;47.662;18.324;2022-12-29T05:06:40;14.87;;;5.85;;
73951;SDS011;62304;47.662;18.324;2022-12-29T05:09:43;12.82;;;6.22;;
73951;SDS011;62304;47.662;18.324;2022-12-29T05:12:47;16.70;;;5.80;;
73951;SDS011;62304;47.662;18.324;2022-12-29T05:15:50;13.35;;;6.78;;
73951;SDS011;62304;47.662;18.324;2022-12-29T05:18:56;11.70;;;6.35;;
73951;SDS011;62304;47.662;18.324;2022-12-29T05:21:59;8.02;;;4.12;;
73951;SDS011;62304;47.662;18.324;2022-12-29T05:25:03;10.52;;;4.37;;
73951;SDS011;62304;47.662;18.324;2022-12-29T05:28:08;7.63;;;3.53;;
73951;SDS011;62304;47.662;18.324;2022-12-29T05:31:12;16.17;;;7.47;;
73951;SDS011;62304;47.662;18.324;2022-12-29T05:34:15;17.42;;;7.22;;
73951;SDS011;62304;47.662;18.324;2022-12-29T05:37:20;13.60;;;6.15;;
73951;SDS011;62304;47.662;18.324;2022-12-29T05:40:23;12.50;;;5.30;;
73951;SDS011;62304;47.662;18.324;2022-12-29T05:43:28;13.97;;;6.43;;
73951;SDS011;62304;47.662;18.324;2022-12-29T05:46:33;11.93;;;5.78;;
73951;SDS011;62304;47.662;18.324;2022-12-29T05:49:36;20.52;;;8.45;;
73951;SDS011;62304;47.662;18.324;2022-12-29T05:52:40;14.80;;;6.95;;
73951;SDS011;62304;47.662;18.324;2022-12-29T05:55:43;13.48;;;7.07;;
73951;SDS011;62304;47.662;18.324;2022-12-29T05:58:50;16.13;;;6.97;;
73951;SDS011;62304;47.662;18.324;2022-12-29T06:01:53;12.77;;;6.43;;
73951;SDS011;62304;47.662;18.324;2022-12-29T06:04:57;16.92;;;7.53;;
73951;SDS011;62304;47.662;18.324;2022-12-29T06:08:00;10.50;;;5.37;;
73951;SDS011;62304;47.662;18.324;2022-12-29T06:11:04;11.93;;;5.65;;
73951;SDS011;62304;47.662;18.324;2022-12-29T06:14:08;11.87;;;5.03;;
73951;SDS011;62304;47.662;18.324;2022-12-29T06:17:12;6.53;;;3.60;;
73951;SDS011;62304;47.662;18.324;2022-12-29T06:20:15;14.87;;;6.00;;
73951;SDS011;62304;47.662;18.324;2022-12-29T06:23:19;10.57;;;5.07;;
73951;SDS011;62304;47.662;18.324;2022-12-29T06:26:22;15.98;;;7.97;;
73951;SDS011;62304;47.662;18.324;2022-12-29T06:29:25;10.67;;;6.93;;
73951;SDS011;62304;47.662;18.324;2022-12-29T06:32:29;12.90;;;4.97;;
73951;SDS011;62304;47.662;18.324;2022-12-29T06:35:34;10.80;;;6.07;;
73951;SDS011;62304;47.662;18.324;2022-12-29T06:38:38;11.40;;;5.12;;
73951;SDS011;62304;47.662;18.324;2022-12-29T06:41:42;18.85;;;9.13;;
73951;SDS011;62304;47.662;18.324;2022-12-29T06:44:45;11.40;;;5.67;;
73951;SDS011;62304;47.662;18.324;2022-12-29T06:47:49;18.70;;;7.03;;
73951;SDS011;62304;47.662;18.324;2022-12-29T06:50:52;18.45;;;9.10;;
73951;SDS011;62304;47.662;18.324;2022-12-29T06:53:56;23.58;;;8.68;;
73951;SDS011;62304;47.662;18.324;2022-12-29T06:56:59;18.17;;;8.00;;
73951;SDS011;62304;47.662;18.324;2022-12-29T07:00:03;23.50;;;10.03;;
73951;SDS011;62304;47.662;18.324;2022-12-29T07:03:08;10.83;;;6.03;;
73951;SDS011;62304;47.662;18.324;2022-12-29T07:06:11;15.65;;;7.62;;
73951;SDS011;62304;47.662;18.324;2022-12-29T07:09:15;23.48;;;7.35;;
73951;SDS011;62304;47.662;18.324;2022-12-29T07:12:19;15.35;;;7.35;;
73951;SDS011;62304;47.662;18.324;2022-12-29T07:15:22;21.53;;;9.53;;
73951;SDS011;62304;47.662;18.324;2022-12-29T07:18:25;17.70;;;7.80;;
73951;SDS011;62304;47.662;18.324;2022-12-29T07:21:28;22.60;;;8.65;;
73951;SDS011;62304;47.662;18.324;2022-12-29T07:24:32;11.48;;;5.30;;
73951;SDS011;62304;47.662;18.324;2022-12-29T07:27:35;12.43;;;6.30;;
73951;SDS011;62304;47.662;18.324;2022-12-29T07:30:38;21.40;;;10.60;;
73951;SDS011;62304;47.662;18.324;2022-12-29T07:33:42;22.77;;;10.02;;
73951;SDS011;62304;47.662;18.324;2022-12-29T07:36:46;18.60;;;8.25;;
73951;SDS011;62304;47.662;18.324;2022-12-29T07:39:49;21.92;;;9.50;;
73951;SDS011;62304;47.662;18.324;2022-12-29T07:42:52;15.73;;;7.07;;
73951;SDS011;62304;47.662;18.324;2022-12-29T07:46:00;20.80;;;9.13;;
73951;SDS011;62304;47.662;18.324;2022-12-29T07:49:03;14.63;;;6.07;;
73951;SDS011;62304;47.662;18.324;2022-12-29T07:52:06;19.37;;;9.73;;
73951;SDS011;62304;47.662;18.324;2022-12-29T07:55:10;12.88;;;6.40;;
73951;SDS011;62304;47.662;18.324;2022-12-29T07:58:13;23.15;;;10.10;;
73951;SDS011;62304;47.662;18.324;2022-12-29T08:01:17;22.33;;;8.33;;
73951;SDS011;62304;47.662;18.324;2022-12-29T08:04:21;18.93;;;6.13;;
73951;SDS011;62304;47.662;18.324;2022-12-29T08:07:25;21.73;;;10.13;;
73951;SDS011;62304;47.662;18.324;2022-12-29T08:10:28;24.25;;;9.70;;
73951;SDS011;62304;47.662;18.324;2022-12-29T08:13:31;12.95;;;6.70;;
73951;SDS011;62304;47.662;18.324;2022-12-29T08:16:35;16.33;;;7.93;;
73951;SDS011;62304;47.662;18.324;2022-12-29T08:19:38;16.70;;;8.00;;
73951;SDS011;62304;47.662;18.324;2022-12-29T08:22:41;16.80;;;8.73;;
73951;SDS011;62304;47.662;18.324;2022-12-29T08:33:20;14.97;;;7.37;;
73951;SDS011;62304;47.662;18.324;2022-12-29T08:36:23;20.70;;;9.33;;
73951;SDS011;62304;47.662;18.324;2022-12-29T08:39:26;14.70;;;5.62;;
73951;SDS011;62304;47.662;18.324;2022-12-29T08:42:30;20.92;;;9.50;;
73951;SDS011;62304;47.662;18.324;2022-12-29T08:45:34;13.57;;;6.15;;
73951;SDS011;62304;47.662;18.324;2022-12-29T08:48:38;14.27;;;7.47;;
73951;SDS011;62304;47.662;18.324;2022-12-29T08:51:41;24.23;;;10.90;;
73951;SDS011;62304;47.662;18.324;2022-12-29T08:54:44;14.93;;;7.03;;
73951;SDS011;62304;47.662;18.324;2022-12-29T08:57:48;13.38;;;7.03;;
73951;SDS011;62304;47.662;18.324;2022-12-29T09:00:55;15.05;;;8.23;;
73951;SDS011;62304;47.662;18.324;2022-12-29T09:03:59;13.57;;;6.83;;
73951;SDS011;62304;47.662;18.324;2022-12-29T09:07:17;18.77;;;9.30;;
73951;SDS011;62304;47.662;18.324;2022-12-29T09:10:21;19.52;;;9.98;;
73951;SDS011;62304;47.662;18.324;2022-12-29T09:13:24;19.67;;;7.78;;
73951;SDS011;62304;47.662;18.324;2022-12-29T09:16:27;10.70;;;5.30;;
73951;SDS011;62304;47.662;18.324;2022-12-29T09:19:31;16.07;;;9.33;;
73951;SDS011;62304;47.662;18.324;2022-12-29T09:22:34;15.00;;;7.17;;
73951;SDS011;62304;47.662;18.324;2022-12-29T09:25:39;19.25;;;9.85;;
73951;SDS011;62304;47.662;18.324;2022-12-29T09:28:42;17.00;;;7.95;;
73951;SDS011;62304;47.662;18.324;2022-12-29T09:31:47;14.77;;;7.62;;
73951;SDS011;62304;47.662;18.324;2022-12-29T09:34:50;12.27;;;7.37;;
73951;SDS011;62304;47.662;18.324;2022-12-29T09:37:53;20.83;;;8.83;;
73951;SDS011;62304;47.662;18.324;2022-12-29T09:41:01;20.05;;;8.90;;
73951;SDS011;62304;47.662;18.324;2022-12-29T09:47:16;16.75;;;6.70;;
73951;SDS011;62304;47.662;18.324;2022-12-29T09:50:24;16.40;;;8.93;;
73951;SDS011;62304;47.662;18.324;2022-12-29T09:53:40;9.80;;;5.20;;
73951;SDS011;62304;47.662;18.324;2022-12-29T09:56:47;14.95;;;8.85;;
73951;SDS011;62304;47.662;18.324;2022-12-29T09:59:59;22.83;;;11.43;;
73951;SDS011;62304;47.662;18.324;2022-12-29T10:06:22;16.00;;;7.77;;
73951;SDS011;62304;47.662;18.324;2022-12-29T10:13:29;19.98;;;10.32;;
73951;SDS011;62304;47.662;18.324;2022-12-29T10:19:48;16.67;;;8.43;;
73951;SDS011;62304;47.662;18.324;2022-12-29T10:23:19;20.43;;;9.73;;
73951;SDS011;62304;47.662;18.324;2022-12-29T10:26:33;13.83;;;8.80;;
73951;SDS011;62304;47.662;18.324;2022-12-29T10:29:48;15.82;;;7.97;;
73951;SDS011;62304;47.662;18.324;2022-12-29T10:33:00;15.05;;;9.48;;
73951;SDS011;62304;47.662;18.324;2022-12-29T10:36:17;13.60;;;7.87;;
73951;SDS011;62304;47.662;18.324;2022-12-29T10:42:40;18.10;;;9.40;;
73951;SDS011;62304;47.662;18.324;2022-12-29T10:45:48;17.77;;;9.68;;
73951;SDS011;62304;47.662;18.324;2022-12-29T10:48:52;20.48;;;10.88;;
73951;SDS011;62304;47.662;18.324;2022-12-29T10:51:57;16.00;;;9.45;;
73951;SDS011;62304;47.662;18.324;2022-12-29T10:55:03;12.50;;;7.63;;
73951;SDS011;62304;47.662;18.324;2022-12-29T10:58:10;16.83;;;7.53;;
73951;SDS011;62304;47.662;18.324;2022-12-29T11:01:15;23.00;;;11.52;;
73951;SDS011;62304;47.662;18.324;2022-12-29T11:08:02;19.15;;;10.32;;
73951;SDS011;62304;47.662;18.324;2022-12-29T11:11:11;18.53;;;9.37;;
73951;SDS011;62304;47.662;18.324;2022-12-29T11:14:18;15.43;;;9.00;;
73951;SDS011;62304;47.662;18.324;2022-12-29T11:17:23;17.73;;;9.48;;
73951;SDS011;62304;47.662;18.324;2022-12-29T11:20:31;19.77;;;11.20;;
73951;SDS011;62304;47.662;18.324;2022-12-29T11:23:40;19.07;;;10.47;;
73951;SDS011;62304;47.662;18.324;2022-12-29T11:26:44;24.23;;;13.17;;
73951;SDS011;62304;47.662;18.324;2022-12-29T11:29:48;19.90;;;10.40;;
73951;SDS011;62304;47.662;18.324;2022-12-29T11:32:56;11.90;;;6.75;;
73951;SDS011;62304;47.662;18.324;2022-12-29T11:36:05;11.68;;;7.20;;
73951;SDS011;62304;47.662;18.324;2022-12-29T11:42:50;23.17;;;11.23;;
73951;SDS011;62304;47.662;18.324;2022-12-29T11:45:58;18.50;;;10.65;;
73951;SDS011;62304;47.662;18.324;2022-12-29T11:49:10;18.30;;;9.70;;
73951;SDS011;62304;47.662;18.324;2022-12-29T11:52:22;19.12;;;10.05;;
73951;SDS011;62304;47.662;18.324;2022-12-29T11:55:28;15.30;;;9.07;;
73951;SDS011;62304;47.662;18.324;2022-12-29T11:58:33;17.93;;;10.13;;
73951;SDS011;62304;47.662;18.324;2022-12-29T12:01:39;16.42;;;10.32;;
73951;SDS011;62304;47.662;18.324;2022-12-29T12:04:44;17.70;;;10.35;;
73951;SDS011;62304;47.662;18.324;2022-12-29T12:07:55;12.63;;;6.97;;
73951;SDS011;62304;47.662;18.324;2022-12-29T12:14:38;14.80;;;8.23;;
73951;SDS011;62304;47.662;18.324;2022-12-29T12:17:53;16.75;;;9.15;;
73951;SDS011;62304;47.662;18.324;2022-12-29T12:21:08;17.83;;;10.50;;
73951;SDS011;62304;47.662;18.324;2022-12-29T12:27:42;16.90;;;9.60;;
73951;SDS011;62304;47.662;18.324;2022-12-29T12:30:53;16.20;;;10.13;;
73951;SDS011;62304;47.662;18.324;2022-12-29T12:34:02;19.98;;;10.63;;
73951;SDS011;62304;47.662;18.324;2022-12-29T12:37:46;18.75;;;10.45;;
73951;SDS011;62304;47.662;18.324;2022-12-29T13:17:45;16.87;;;9.60;;
73951;SDS011;62304;47.662;18.324;2022-12-29T13:21:07;19.83;;;10.50;;
73951;SDS011;62304;47.662;18.324;2022-12-29T13:28:02;21.08;;;11.60;;
73951;SDS011;62304;47.662;18.324;2022-12-29T13:31:10;22.60;;;13.23;;
73951;SDS011;62304;47.662;18.324;2022-12-29T13:37:49;19.00;;;12.07;;
73951;SDS011;62304;47.662;18.324;2022-12-29T13:40:59;22.48;;;13.10;;
73951;SDS011;62304;47.662;18.324;2022-12-29T13:44:06;21.60;;;12.48;;
73951;SDS011;62304;47.662;18.324;2022-12-29T13:50:41;24.50;;;12.17;;
73951;SDS011;62304;47.662;18.324;2022-12-29T14:00:29;30.37;;;14.85;;
73951;SDS011;62304;47.662;18.324;2022-12-29T14:07:04;28.40;;;12.97;;
73951;SDS011;62304;47.662;18.324;2022-12-29T14:13:39;32.88;;;16.50;;
73951;SDS011;62304;47.662;18.324;2022-12-29T14:16:45;45.80;;;21.58;;
73951;SDS011;62304;47.662;18.324;2022-12-29T14:19:51;25.37;;;11.77;;
73951;SDS011;62304;47.662;18.324;2022-12-29T14:26:44;26.40;;;12.33;;
73951;SDS011;62304;47.662;18.324;2022-12-29T14:29:49;29.67;;;13.23;;
73951;SDS011;62304;47.662;18.324;2022-12-29T14:33:11;25.25;;;13.52;;
73951;SDS011;62304;47.662;18.324;2022-12-29T14:42:37;26.03;;;12.97;;
73951;SDS011;62304;47.662;18.324;2022-12-29T14:45:42;27.80;;;13.68;;
73951;SDS011;62304;47.662;18.324;2022-12-29T14:48:55;35.78;;;15.75;;
73951;SDS011;62304;47.662;18.324;2022-12-29T14:52:12;48.47;;;18.35;;
73951;SDS011;62304;47.662;18.324;2022-12-29T14:55:31;44.07;;;22.10;;
73951;SDS011;62304;47.662;18.324;2022-12-29T14:58:56;37.23;;;18.53;;
73951;SDS011;62304;47.662;18.324;2022-12-29T15:02:01;37.30;;;20.55;;
73951;SDS011;62304;47.662;18.324;2022-12-29T15:08:59;30.42;;;15.65;;
73951;SDS011;62304;47.662;18.324;2022-12-29T15:12:23;36.03;;;18.27;;
73951;SDS011;62304;47.662;18.324;2022-12-29T15:15:44;41.67;;;20.33;;
73951;SDS011;62304;47.662;18.324;2022-12-29T15:18:48;48.40;;;24.83;;
73951;SDS011;62304;47.662;18.324;2022-12-29T15:21:52;39.78;;;21.87;;
73951;SDS011;62304;47.662;18.324;2022-12-29T15:24:57;35.30;;;17.85;;
73951;SDS011;62304;47.662;18.324;2022-12-29T15:28:01;38.20;;;18.80;;
73951;SDS011;62304;47.662;18.324;2022-12-29T15:31:13;43.17;;;22.37;;
73951;SDS011;62304;47.662;18.324;2022-12-29T15:34:20;51.03;;;26.67;;
73951;SDS011;62304;47.662;18.324;2022-12-29T15:37:25;44.22;;;23.15;;
73951;SDS011;62304;47.662;18.324;2022-12-29T15:40:36;47.35;;;27.55;;
73951;SDS011;62304;47.662;18.324;2022-12-29T15:44:25;44.60;;;24.40;;
73951;SDS011;62304;47.662;18.324;2022-12-29T15:50:29;77.68;;;38.28;;
73951;SDS011;62304;47.662;18.324;2022-12-29T15:53:34;87.10;;;42.83;;
73951;SDS011;62304;47.662;18.324;2022-12-29T15:56:36;96.85;;;44.55;;
73951;SDS011;62304;47.662;18.324;2022-12-29T15:59:44;129.30;;;54.40;;
73951;SDS011;62304;47.662;18.324;2022-12-29T16:02:49;115.10;;;48.67;;
73951;SDS011;62304;47.662;18.324;2022-12-29T16:05:54;254.60;;;94.70;;
73951;SDS011;62304;47.662;18.324;2022-12-29T16:09:00;93.32;;;42.03;;
73951;SDS011;62304;47.662;18.324;2022-12-29T16:12:06;55.25;;;28.12;;
73951;SDS011;62304;47.662;18.324;2022-12-29T16:15:19;97.33;;;41.27;;
73951;SDS011;62304;47.662;18.324;2022-12-29T16:18:35;158.83;;;55.53;;
73951;SDS011;62304;47.662;18.324;2022-12-29T16:21:40;138.62;;;49.47;;
73951;SDS011;62304;47.662;18.324;2022-12-29T16:24:44;100.00;;;40.50;;
73951;SDS011;62304;47.662;18.324;2022-12-29T16:27:48;91.68;;;38.33;;
73951;SDS011;62304;47.662;18.324;2022-12-29T16:31:05;132.00;;;43.30;;
73951;SDS011;62304;47.662;18.324;2022-12-29T16:34:13;92.30;;;35.88;;
73951;SDS011;62304;47.662;18.324;2022-12-29T16:37:28;77.45;;;35.17;;
73951;SDS011;62304;47.662;18.324;2022-12-29T16:40:32;85.50;;;38.08;;
73951;SDS011;62304;47.662;18.324;2022-12-29T16:43:36;92.97;;;38.88;;
73951;SDS011;62304;47.662;18.324;2022-12-29T16:47:01;70.43;;;33.13;;
73951;SDS011;62304;47.662;18.324;2022-12-29T16:50:16;67.70;;;32.47;;
73951;SDS011;62304;47.662;18.324;2022-12-29T16:53:31;73.37;;;32.85;;
73951;SDS011;62304;47.662;18.324;2022-12-29T16:56:49;66.78;;;33.38;;
73951;SDS011;62304;47.662;18.324;2022-12-29T16:59:55;61.92;;;32.53;;
73951;SDS011;62304;47.662;18.324;2022-12-29T17:03:04;69.67;;;32.70;;
73951;SDS011;62304;47.662;18.324;2022-12-29T17:06:15;69.37;;;33.20;;
73951;SDS011;62304;47.662;18.324;2022-12-29T17:09:24;69.25;;;33.78;;
73951;SDS011;62304;47.662;18.324;2022-12-29T17:12:34;83.65;;;37.65;;
73951;SDS011;62304;47.662;18.324;2022-12-29T17:15:41;67.75;;;34.53;;
73951;SDS011;62304;47.662;18.324;2022-12-29T17:18:47;81.17;;;36.60;;
73951;SDS011;62304;47.662;18.324;2022-12-29T17:21:52;81.87;;;38.40;;
73951;SDS011;62304;47.662;18.324;2022-12-29T17:24:57;79.50;;;36.72;;
73951;SDS011;62304;47.662;18.324;2022-12-29T17:31:24;78.35;;;36.92;;
73951;SDS011;62304;47.662;18.324;2022-12-29T17:34:28;79.13;;;37.60;;
73951;SDS011;62304;47.662;18.324;2022-12-29T17:37:33;78.70;;;35.42;;
73951;SDS011;62304;47.662;18.324;2022-12-29T17:40:38;78.97;;;37.13;;
73951;SDS011;62304;47.662;18.324;2022-12-29T17:43:41;83.60;;;35.53;;
73951;SDS011;62304;47.662;18.324;2022-12-29T17:46:45;80.87;;;36.55;;
73951;SDS011;62304;47.662;18.324;2022-12-29T17:49:50;82.03;;;36.90;;
73951;SDS011;62304;47.662;18.324;2022-12-29T17:52:54;78.45;;;36.47;;
73951;SDS011;62304;47.662;18.324;2022-12-29T17:56:02;77.87;;;36.45;;
73951;SDS011;62304;47.662;18.324;2022-12-29T17:59:09;85.00;;;34.30;;
73951;SDS011;62304;47.662;18.324;2022-12-29T18:02:22;73.50;;;33.13;;
73951;SDS011;62304;47.662;18.324;2022-12-29T18:05:29;82.00;;;37.60;;
73951;SDS011;62304;47.662;18.324;2022-12-29T18:08:36;84.30;;;37.60;;
73951;SDS011;62304;47.662;18.324;2022-12-29T18:11:41;87.18;;;39.35;;
73951;SDS011;62304;47.662;18.324;2022-12-29T18:14:45;98.87;;;40.22;;
73951;SDS011;62304;47.662;18.324;2022-12-29T18:17:49;97.50;;;42.53;;
73951;SDS011;62304;47.662;18.324;2022-12-29T18:20:57;107.27;;;42.63;;
73951;SDS011;62304;47.662;18.324;2022-12-29T18:24:02;107.93;;;47.47;;
73951;SDS011;62304;47.662;18.324;2022-12-29T18:27:14;119.82;;;49.35;;
73951;SDS011;62304;47.662;18.324;2022-12-29T18:30:19;131.18;;;57.22;;
73951;SDS011;62304;47.662;18.324;2022-12-29T18:33:22;134.15;;;62.13;;
73951;SDS011;62304;47.662;18.324;2022-12-29T18:36:28;134.77;;;57.77;;
73951;SDS011;62304;47.662;18.324;2022-12-29T18:39:32;135.98;;;57.47;;
73951;SDS011;62304;47.662;18.324;2022-12-29T18:42:35;114.28;;;54.58;;
73951;SDS011;62304;47.662;18.324;2022-12-29T18:45:38;117.90;;;55.25;;
73951;SDS011;62304;47.662;18.324;2022-12-29T18:48:42;111.68;;;53.87;;
73951;SDS011;62304;47.662;18.324;2022-12-29T18:51:46;114.90;;;52.80;;
73951;SDS011;62304;47.662;18.324;2022-12-29T18:54:49;123.45;;;55.30;;
73951;SDS011;62304;47.662;18.324;2022-12-29T18:57:52;105.28;;;51.30;;
73951;SDS011;62304;47.662;18.324;2022-12-29T19:00:56;95.32;;;43.72;;
73951;SDS011;62304;47.662;18.324;2022-12-29T19:03:59;103.30;;;45.95;;
73951;SDS011;62304;47.662;18.324;2022-12-29T19:07:02;99.30;;;47.00;;
73951;SDS011;62304;47.662;18.324;2022-12-29T19:10:05;93.80;;;45.53;;
73951;SDS011;62304;47.662;18.324;2022-12-29T19:13:17;94.80;;;44.92;;
73951;SDS011;62304;47.662;18.324;2022-12-29T19:16:21;86.32;;;41.20;;
73951;SDS011;62304;47.662;18.324;2022-12-29T19:19:27;77.80;;;39.75;;
73951;SDS011;62304;47.662;18.324;2022-12-29T19:22:30;84.83;;;41.50;;
73951;SDS011;62304;47.662;18.324;2022-12-29T19:25:33;85.10;;;39.55;;
73951;SDS011;62304;47.662;18.324;2022-12-29T19:28:37;71.85;;;36.40;;
73951;SDS011;62304;47.662;18.324;2022-12-29T19:31:40;79.90;;;35.38;;
73951;SDS011;62304;47.662;18.324;2022-12-29T19:34:43;71.25;;;35.30;;
73951;SDS011;62304;47.662;18.324;2022-12-29T19:37:50;67.73;;;32.87;;
73951;SDS011;62304;47.662;18.324;2022-12-29T19:40:54;65.18;;;31.77;;
73951;SDS011;62304;47.662;18.324;2022-12-29T19:43:57;78.60;;;37.03;;
73951;SDS011;62304;47.662;18.324;2022-12-29T19:47:00;88.47;;;37.97;;
73951;SDS011;62304;47.662;18.324;2022-12-29T19:50:04;85.47;;;35.83;;
73951;SDS011;62304;47.662;18.324;2022-12-29T19:53:08;84.97;;;38.47;;
73951;SDS011;62304;47.662;18.324;2022-12-29T19:56:12;87.32;;;36.35;;
73951;SDS011;62304;47.662;18.324;2022-12-29T19:59:18;73.87;;;34.33;;
73951;SDS011;62304;47.662;18.324;2022-12-29T20:02:23;74.90;;;33.38;;
73951;SDS011;62304;47.662;18.324;2022-12-29T20:05:28;71.90;;;33.13;;
73951;SDS011;62304;47.662;18.324;2022-12-29T20:08:32;79.53;;;34.38;;
73951;SDS011;62304;47.662;18.324;2022-12-29T20:11:36;112.62;;;42.65;;
73951;SDS011;62304;47.662;18.324;2022-12-29T20:14:40;96.07;;;43.67;;
73951;SDS011;62304;47.662;18.324;2022-12-29T20:17:44;88.97;;;40.15;;
73951;SDS011;62304;47.662;18.324;2022-12-29T20:21:10;105.97;;;41.22;;
73951;SDS011;62304;47.662;18.324;2022-12-29T20:24:16;95.38;;;40.55;;
73951;SDS011;62304;47.662;18.324;2022-12-29T20:27:19;98.90;;;41.28;;
73951;SDS011;62304;47.662;18.324;2022-12-29T20:30:22;79.78;;;35.47;;
73951;SDS011;62304;47.662;18.324;2022-12-29T20:33:27;71.90;;;34.27;;
73951;SDS011;62304;47.662;18.324;2022-12-29T20:36:33;67.43;;;31.42;;
73951;SDS011;62304;47.662;18.324;2022-12-29T20:39:38;67.35;;;32.70;;
73951;SDS011;62304;47.662;18.324;2022-12-29T20:42:42;74.90;;;34.45;;
73951;SDS011;62304;47.662;18.324;2022-12-29T20:45:45;75.28;;;35.00;;